sensor_id;sensor_type;location;lat;lon;timestamp;P1;durP1;ratioP1;P2;durP2;ratioP2
6547;SDS011;3307;52.416;16.862;2023-04-05T00:01:07;15.70;;;11.23;;
6547;SDS011;3307;52.416;16.862;2023-04-05T00:03:32;18.47;;;13.10;;
6547;SDS011;3307;52.416;16.862;2023-04-05T00:05:59;16.90;;;10.95;;
6547;SDS011;3307;52.416;16.862;2023-04-05T00:08:26;14.75;;;12.25;;
6547;SDS011;3307;52.416;16.862;2023-04-05T00:10:52;18.13;;;14.00;;
6547;SDS011;3307;52.416;16.862;2023-04-05T00:13:18;22.13;;;15.37;;
6547;SDS011;3307;52.416;16.862;2023-04-05T00:15:44;19.42;;;13.13;;
6547;SDS011;3307;52.416;16.862;2023-04-05T00:18:09;17.33;;;12.57;;
6547;SDS011;3307;52.416;16.862;2023-04-05T00:20:45;17.65;;;13.10;;
6547;SDS011;3307;52.416;16.862;2023-04-05T00:23:20;19.13;;;13.07;;
6547;SDS011;3307;52.416;16.862;2023-04-05T00:25:46;16.00;;;12.20;;
6547;SDS011;3307;52.416;16.862;2023-04-05T00:28:12;15.17;;;12.37;;
6547;SDS011;3307;52.416;16.862;2023-04-05T00:30:38;18.93;;;13.60;;
6547;SDS011;3307;52.416;16.862;2023-04-05T00:33:04;17.73;;;12.75;;
6547;SDS011;3307;52.416;16.862;2023-04-05T00:35:29;18.73;;;12.40;;
6547;SDS011;3307;52.416;16.862;2023-04-05T00:37:55;12.80;;;9.40;;
6547;SDS011;3307;52.416;16.862;2023-04-05T00:40:21;13.33;;;9.97;;
6547;SDS011;3307;52.416;16.862;2023-04-05T00:42:47;12.57;;;9.05;;
6547;SDS011;3307;52.416;16.862;2023-04-05T00:45:12;10.47;;;8.90;;
6547;SDS011;3307;52.416;16.862;2023-04-05T00:47:39;15.37;;;9.03;;
6547;SDS011;3307;52.416;16.862;2023-04-05T00:50:05;12.52;;;8.55;;
6547;SDS011;3307;52.416;16.862;2023-04-05T00:52:31;12.85;;;8.48;;
6547;SDS011;3307;52.416;16.862;2023-04-05T00:54:57;14.17;;;9.40;;
6547;SDS011;3307;52.416;16.862;2023-04-05T00:57:23;11.67;;;8.70;;
6547;SDS011;3307;52.416;16.862;2023-04-05T00:59:50;12.93;;;9.27;;
6547;SDS011;3307;52.416;16.862;2023-04-05T01:04:50;11.13;;;8.30;;
6547;SDS011;3307;52.416;16.862;2023-04-05T01:10:03;11.05;;;8.60;;
6547;SDS011;3307;52.416;16.862;2023-04-05T01:12:31;13.88;;;9.77;;
6547;SDS011;3307;52.416;16.862;2023-04-05T01:14:57;16.00;;;10.00;;
6547;SDS011;3307;52.416;16.862;2023-04-05T01:17:24;14.23;;;9.90;;
6547;SDS011;3307;52.416;16.862;2023-04-05T01:19:58;14.30;;;11.20;;
6547;SDS011;3307;52.416;16.862;2023-04-05T01:25:37;12.50;;;10.10;;
6547;SDS011;3307;52.416;16.862;2023-04-05T01:34:07;15.52;;;10.10;;
6547;SDS011;3307;52.416;16.862;2023-04-05T01:36:56;14.50;;;10.85;;
6547;SDS011;3307;52.416;16.862;2023-04-05T01:39:22;16.08;;;11.23;;
6547;SDS011;3307;52.416;16.862;2023-04-05T01:41:48;16.65;;;11.20;;
6547;SDS011;3307;52.416;16.862;2023-04-05T01:44:14;19.98;;;12.57;;
6547;SDS011;3307;52.416;16.862;2023-04-05T01:46:40;15.33;;;12.13;;
6547;SDS011;3307;52.416;16.862;2023-04-05T01:49:05;18.67;;;13.73;;
6547;SDS011;3307;52.416;16.862;2023-04-05T01:51:31;20.13;;;15.65;;
6547;SDS011;3307;52.416;16.862;2023-04-05T01:53:57;18.17;;;13.57;;
6547;SDS011;3307;52.416;16.862;2023-04-05T01:56:22;25.20;;;18.57;;
6547;SDS011;3307;52.416;16.862;2023-04-05T01:58:48;23.63;;;16.00;;
6547;SDS011;3307;52.416;16.862;2023-04-05T02:01:13;20.53;;;14.10;;
6547;SDS011;3307;52.416;16.862;2023-04-05T02:03:38;22.10;;;15.47;;
6547;SDS011;3307;52.416;16.862;2023-04-05T02:06:04;18.30;;;13.73;;
6547;SDS011;3307;52.416;16.862;2023-04-05T02:08:30;18.83;;;14.00;;
6547;SDS011;3307;52.416;16.862;2023-04-05T02:10:55;17.37;;;14.13;;
6547;SDS011;3307;52.416;16.862;2023-04-05T02:13:21;18.10;;;13.37;;
6547;SDS011;3307;52.416;16.862;2023-04-05T02:15:49;17.67;;;12.50;;
6547;SDS011;3307;52.416;16.862;2023-04-05T02:18:15;18.40;;;14.35;;
6547;SDS011;3307;52.416;16.862;2023-04-05T02:20:47;20.02;;;13.52;;
6547;SDS011;3307;52.416;16.862;2023-04-05T02:23:14;18.05;;;14.15;;
6547;SDS011;3307;52.416;16.862;2023-04-05T02:25:39;16.03;;;12.50;;
6547;SDS011;3307;52.416;16.862;2023-04-05T02:28:04;17.70;;;12.93;;
6547;SDS011;3307;52.416;16.862;2023-04-05T02:30:30;17.87;;;12.37;;
6547;SDS011;3307;52.416;16.862;2023-04-05T02:32:55;15.20;;;11.20;;
6547;SDS011;3307;52.416;16.862;2023-04-05T02:35:21;18.47;;;11.90;;
6547;SDS011;3307;52.416;16.862;2023-04-05T02:37:47;14.98;;;11.57;;
6547;SDS011;3307;52.416;16.862;2023-04-05T02:40:13;19.70;;;11.83;;
6547;SDS011;3307;52.416;16.862;2023-04-05T02:42:39;15.93;;;11.57;;
6547;SDS011;3307;52.416;16.862;2023-04-05T02:45:05;19.40;;;13.00;;
6547;SDS011;3307;52.416;16.862;2023-04-05T02:47:32;18.58;;;11.07;;
6547;SDS011;3307;52.416;16.862;2023-04-05T02:49:58;19.43;;;12.50;;
6547;SDS011;3307;52.416;16.862;2023-04-05T02:52:23;18.63;;;11.83;;
6547;SDS011;3307;52.416;16.862;2023-04-05T02:54:49;14.90;;;10.90;;
6547;SDS011;3307;52.416;16.862;2023-04-05T02:57:14;15.53;;;11.90;;
6547;SDS011;3307;52.416;16.862;2023-04-05T02:59:40;19.57;;;13.60;;
6547;SDS011;3307;52.416;16.862;2023-04-05T03:02:07;18.02;;;11.98;;
6547;SDS011;3307;52.416;16.862;2023-04-05T03:04:33;18.38;;;12.75;;
6547;SDS011;3307;52.416;16.862;2023-04-05T03:06:59;16.43;;;13.10;;
6547;SDS011;3307;52.416;16.862;2023-04-05T03:09:28;17.98;;;13.60;;
6547;SDS011;3307;52.416;16.862;2023-04-05T03:12:04;18.38;;;14.77;;
6547;SDS011;3307;52.416;16.862;2023-04-05T03:14:29;21.58;;;15.30;;
6547;SDS011;3307;52.416;16.862;2023-04-05T03:16:56;20.55;;;15.23;;
6547;SDS011;3307;52.416;16.862;2023-04-05T03:19:22;23.45;;;16.63;;
6547;SDS011;3307;52.416;16.862;2023-04-05T03:21:48;26.67;;;18.58;;
6547;SDS011;3307;52.416;16.862;2023-04-05T03:24:14;25.63;;;18.47;;
6547;SDS011;3307;52.416;16.862;2023-04-05T03:26:42;23.40;;;18.38;;
6547;SDS011;3307;52.416;16.862;2023-04-05T03:29:09;22.20;;;19.88;;
6547;SDS011;3307;52.416;16.862;2023-04-05T03:31:34;24.93;;;18.87;;
6547;SDS011;3307;52.416;16.862;2023-04-05T03:34:00;22.20;;;17.03;;
6547;SDS011;3307;52.416;16.862;2023-04-05T03:36:25;21.30;;;16.00;;
6547;SDS011;3307;52.416;16.862;2023-04-05T03:38:52;22.52;;;16.73;;
6547;SDS011;3307;52.416;16.862;2023-04-05T03:41:20;23.05;;;17.02;;
6547;SDS011;3307;52.416;16.862;2023-04-05T03:43:45;21.53;;;17.40;;
6547;SDS011;3307;52.416;16.862;2023-04-05T03:46:10;22.83;;;16.77;;
6547;SDS011;3307;52.416;16.862;2023-04-05T03:48:36;26.90;;;17.70;;
6547;SDS011;3307;52.416;16.862;2023-04-05T03:51:01;21.10;;;17.20;;
6547;SDS011;3307;52.416;16.862;2023-04-05T03:53:27;23.70;;;17.90;;
6547;SDS011;3307;52.416;16.862;2023-04-05T03:55:53;32.80;;;18.13;;
6547;SDS011;3307;52.416;16.862;2023-04-05T03:58:19;44.50;;;28.58;;
6547;SDS011;3307;52.416;16.862;2023-04-05T04:00:46;85.43;;;52.42;;
6547;SDS011;3307;52.416;16.862;2023-04-05T04:03:11;69.43;;;45.00;;
6547;SDS011;3307;52.416;16.862;2023-04-05T04:05:38;57.53;;;40.55;;
6547;SDS011;3307;52.416;16.862;2023-04-05T04:08:06;67.20;;;42.57;;
6547;SDS011;3307;52.416;16.862;2023-04-05T04:10:33;45.45;;;30.33;;
6547;SDS011;3307;52.416;16.862;2023-04-05T04:12:58;37.83;;;28.20;;
6547;SDS011;3307;52.416;16.862;2023-04-05T04:15:24;40.23;;;27.73;;
6547;SDS011;3307;52.416;16.862;2023-04-05T04:17:50;38.85;;;26.92;;
6547;SDS011;3307;52.416;16.862;2023-04-05T04:20:15;41.17;;;30.77;;
6547;SDS011;3307;52.416;16.862;2023-04-05T04:22:41;47.77;;;29.60;;
6547;SDS011;3307;52.416;16.862;2023-04-05T04:25:07;46.27;;;31.60;;
6547;SDS011;3307;52.416;16.862;2023-04-05T04:27:35;54.53;;;33.78;;
6547;SDS011;3307;52.416;16.862;2023-04-05T04:30:04;49.78;;;32.78;;
6547;SDS011;3307;52.416;16.862;2023-04-05T04:32:32;47.45;;;33.42;;
6547;SDS011;3307;52.416;16.862;2023-04-05T04:35:16;49.85;;;32.55;;
6547;SDS011;3307;52.416;16.862;2023-04-05T04:37:45;45.65;;;33.63;;
6547;SDS011;3307;52.416;16.862;2023-04-05T04:40:12;46.40;;;31.27;;
6547;SDS011;3307;52.416;16.862;2023-04-05T04:42:41;34.15;;;24.85;;
6547;SDS011;3307;52.416;16.862;2023-04-05T04:45:13;35.60;;;25.45;;
6547;SDS011;3307;52.416;16.862;2023-04-05T04:47:45;40.63;;;25.38;;
6547;SDS011;3307;52.416;16.862;2023-04-05T04:50:12;33.33;;;25.25;;
6547;SDS011;3307;52.416;16.862;2023-04-05T04:52:39;35.33;;;24.55;;
6547;SDS011;3307;52.416;16.862;2023-04-05T04:55:05;34.53;;;24.95;;
6547;SDS011;3307;52.416;16.862;2023-04-05T04:57:32;36.47;;;24.60;;
6547;SDS011;3307;52.416;16.862;2023-04-05T04:59:58;35.03;;;25.73;;
6547;SDS011;3307;52.416;16.862;2023-04-05T05:02:23;34.73;;;20.57;;
6547;SDS011;3307;52.416;16.862;2023-04-05T05:04:49;26.52;;;17.90;;
6547;SDS011;3307;52.416;16.862;2023-04-05T05:07:15;22.87;;;18.03;;
6547;SDS011;3307;52.416;16.862;2023-04-05T05:09:41;29.48;;;16.35;;
6547;SDS011;3307;52.416;16.862;2023-04-05T05:12:07;28.73;;;16.00;;
6547;SDS011;3307;52.416;16.862;2023-04-05T05:14:32;24.30;;;15.77;;
6547;SDS011;3307;52.416;16.862;2023-04-05T05:16:58;24.43;;;16.70;;
6547;SDS011;3307;52.416;16.862;2023-04-05T05:19:23;16.67;;;13.90;;
6547;SDS011;3307;52.416;16.862;2023-04-05T05:21:49;24.10;;;15.10;;
6547;SDS011;3307;52.416;16.862;2023-04-05T05:24:15;19.58;;;12.27;;
6547;SDS011;3307;52.416;16.862;2023-04-05T05:26:41;14.93;;;11.90;;
6547;SDS011;3307;52.416;16.862;2023-04-05T05:29:06;15.83;;;11.10;;
6547;SDS011;3307;52.416;16.862;2023-04-05T05:31:32;19.07;;;9.90;;
6547;SDS011;3307;52.416;16.862;2023-04-05T05:33:58;17.47;;;10.17;;
6547;SDS011;3307;52.416;16.862;2023-04-05T05:36:25;15.20;;;10.65;;
6547;SDS011;3307;52.416;16.862;2023-04-05T05:38:51;13.95;;;10.95;;
6547;SDS011;3307;52.416;16.862;2023-04-05T05:41:18;12.40;;;9.77;;
6547;SDS011;3307;52.416;16.862;2023-04-05T05:43:43;14.93;;;9.90;;
6547;SDS011;3307;52.416;16.862;2023-04-05T05:46:08;15.03;;;9.73;;
6547;SDS011;3307;52.416;16.862;2023-04-05T05:48:34;15.07;;;9.63;;
6547;SDS011;3307;52.416;16.862;2023-04-05T05:51:00;12.93;;;9.90;;
6547;SDS011;3307;52.416;16.862;2023-04-05T05:53:26;13.07;;;9.10;;
6547;SDS011;3307;52.416;16.862;2023-04-05T05:55:52;11.73;;;9.00;;
6547;SDS011;3307;52.416;16.862;2023-04-05T05:58:17;14.37;;;10.57;;
6547;SDS011;3307;52.416;16.862;2023-04-05T06:00:42;11.30;;;9.40;;
6547;SDS011;3307;52.416;16.862;2023-04-05T06:03:08;10.90;;;9.10;;
6547;SDS011;3307;52.416;16.862;2023-04-05T06:05:34;12.82;;;9.75;;
6547;SDS011;3307;52.416;16.862;2023-04-05T06:08:00;14.90;;;9.60;;
6547;SDS011;3307;52.416;16.862;2023-04-05T06:10:27;15.23;;;9.38;;
6547;SDS011;3307;52.416;16.862;2023-04-05T06:12:53;9.60;;;8.60;;
6547;SDS011;3307;52.416;16.862;2023-04-05T06:15:19;10.47;;;8.60;;
6547;SDS011;3307;52.416;16.862;2023-04-05T06:17:45;13.27;;;8.80;;
6547;SDS011;3307;52.416;16.862;2023-04-05T06:20:10;13.20;;;8.23;;
6547;SDS011;3307;52.416;16.862;2023-04-05T06:22:36;14.30;;;8.73;;
6547;SDS011;3307;52.416;16.862;2023-04-05T06:25:04;9.20;;;7.63;;
6547;SDS011;3307;52.416;16.862;2023-04-05T06:27:31;12.77;;;8.13;;
6547;SDS011;3307;52.416;16.862;2023-04-05T06:29:58;11.27;;;7.50;;
6547;SDS011;3307;52.416;16.862;2023-04-05T06:32:24;11.63;;;8.30;;
6547;SDS011;3307;52.416;16.862;2023-04-05T06:34:49;9.53;;;8.17;;
6547;SDS011;3307;52.416;16.862;2023-04-05T06:37:15;17.10;;;8.10;;
6547;SDS011;3307;52.416;16.862;2023-04-05T06:39:40;12.57;;;8.30;;
6547;SDS011;3307;52.416;16.862;2023-04-05T06:42:05;8.27;;;7.40;;
6547;SDS011;3307;52.416;16.862;2023-04-05T06:44:31;7.77;;;6.47;;
6547;SDS011;3307;52.416;16.862;2023-04-05T06:46:56;8.10;;;5.97;;
6547;SDS011;3307;52.416;16.862;2023-04-05T06:49:22;8.83;;;6.37;;
6547;SDS011;3307;52.416;16.862;2023-04-05T06:51:48;11.03;;;8.67;;
6547;SDS011;3307;52.416;16.862;2023-04-05T06:54:13;8.60;;;6.43;;
6547;SDS011;3307;52.416;16.862;2023-04-05T06:56:39;10.57;;;7.07;;
6547;SDS011;3307;52.416;16.862;2023-04-05T06:59:05;10.87;;;6.57;;
6547;SDS011;3307;52.416;16.862;2023-04-05T07:01:30;11.67;;;8.10;;
6547;SDS011;3307;52.416;16.862;2023-04-05T07:03:56;12.70;;;8.70;;
6547;SDS011;3307;52.416;16.862;2023-04-05T07:06:21;8.97;;;7.17;;
6547;SDS011;3307;52.416;16.862;2023-04-05T07:08:48;11.48;;;7.22;;
6547;SDS011;3307;52.416;16.862;2023-04-05T07:11:13;9.00;;;7.13;;
6547;SDS011;3307;52.416;16.862;2023-04-05T07:13:39;10.32;;;7.78;;
6547;SDS011;3307;52.416;16.862;2023-04-05T07:16:05;8.87;;;7.27;;
6547;SDS011;3307;52.416;16.862;2023-04-05T07:18:30;7.47;;;6.63;;
6547;SDS011;3307;52.416;16.862;2023-04-05T07:20:56;10.40;;;6.70;;
6547;SDS011;3307;52.416;16.862;2023-04-05T07:23:26;10.02;;;7.03;;
6547;SDS011;3307;52.416;16.862;2023-04-05T07:25:52;10.73;;;7.90;;
6547;SDS011;3307;52.416;16.862;2023-04-05T07:28:18;9.82;;;7.50;;
6547;SDS011;3307;52.416;16.862;2023-04-05T07:30:44;11.17;;;7.30;;
6547;SDS011;3307;52.416;16.862;2023-04-05T07:33:09;8.90;;;8.00;;
6547;SDS011;3307;52.416;16.862;2023-04-05T07:35:35;10.90;;;9.17;;
6547;SDS011;3307;52.416;16.862;2023-04-05T07:38:00;11.63;;;7.47;;
6547;SDS011;3307;52.416;16.862;2023-04-05T07:40:26;10.07;;;8.10;;
6547;SDS011;3307;52.416;16.862;2023-04-05T07:42:51;8.83;;;7.83;;
6547;SDS011;3307;52.416;16.862;2023-04-05T07:45:17;10.50;;;6.87;;
6547;SDS011;3307;52.416;16.862;2023-04-05T07:47:42;9.67;;;7.37;;
6547;SDS011;3307;52.416;16.862;2023-04-05T07:50:08;10.97;;;7.53;;
6547;SDS011;3307;52.416;16.862;2023-04-05T07:52:36;11.18;;;7.47;;
6547;SDS011;3307;52.416;16.862;2023-04-05T07:55:01;7.90;;;6.43;;
6547;SDS011;3307;52.416;16.862;2023-04-05T07:57:27;9.37;;;7.47;;
6547;SDS011;3307;52.416;16.862;2023-04-05T07:59:52;9.90;;;6.83;;
6547;SDS011;3307;52.416;16.862;2023-04-05T08:02:19;11.70;;;7.40;;
6547;SDS011;3307;52.416;16.862;2023-04-05T08:04:45;9.63;;;6.50;;
6547;SDS011;3307;52.416;16.862;2023-04-05T08:07:10;9.73;;;6.83;;
6547;SDS011;3307;52.416;16.862;2023-04-05T08:09:36;8.60;;;7.70;;
6547;SDS011;3307;52.416;16.862;2023-04-05T08:12:01;7.93;;;6.63;;
6547;SDS011;3307;52.416;16.862;2023-04-05T08:14:27;12.13;;;7.83;;
6547;SDS011;3307;52.416;16.862;2023-04-05T08:16:53;10.45;;;7.85;;
6547;SDS011;3307;52.416;16.862;2023-04-05T08:19:18;13.23;;;8.30;;
6547;SDS011;3307;52.416;16.862;2023-04-05T08:21:44;11.97;;;7.93;;
6547;SDS011;3307;52.416;16.862;2023-04-05T08:24:09;8.67;;;7.33;;
6547;SDS011;3307;52.416;16.862;2023-04-05T08:26:35;8.93;;;7.40;;
6547;SDS011;3307;52.416;16.862;2023-04-05T08:29:00;11.27;;;7.90;;
6547;SDS011;3307;52.416;16.862;2023-04-05T08:31:26;8.67;;;7.60;;
6547;SDS011;3307;52.416;16.862;2023-04-05T08:33:51;9.47;;;7.20;;
6547;SDS011;3307;52.416;16.862;2023-04-05T08:36:16;10.93;;;7.70;;
6547;SDS011;3307;52.416;16.862;2023-04-05T08:38:42;9.70;;;6.90;;
6547;SDS011;3307;52.416;16.862;2023-04-05T08:41:13;7.83;;;5.53;;
6547;SDS011;3307;52.416;16.862;2023-04-05T08:43:57;12.48;;;9.38;;
6547;SDS011;3307;52.416;16.862;2023-04-05T08:46:26;14.30;;;9.75;;
6547;SDS011;3307;52.416;16.862;2023-04-05T08:48:57;11.02;;;8.63;;
6547;SDS011;3307;52.416;16.862;2023-04-05T08:51:23;13.07;;;9.50;;
6547;SDS011;3307;52.416;16.862;2023-04-05T08:53:50;14.30;;;10.00;;
6547;SDS011;3307;52.416;16.862;2023-04-05T08:56:20;18.60;;;10.55;;
6547;SDS011;3307;52.416;16.862;2023-04-05T08:59:05;14.98;;;9.00;;
6547;SDS011;3307;52.416;16.862;2023-04-05T09:01:41;12.38;;;9.77;;
6547;SDS011;3307;52.416;16.862;2023-04-05T09:04:11;10.13;;;8.35;;
6547;SDS011;3307;52.416;16.862;2023-04-05T09:06:39;11.18;;;6.43;;
6547;SDS011;3307;52.416;16.862;2023-04-05T09:09:05;9.97;;;7.50;;
6547;SDS011;3307;52.416;16.862;2023-04-05T09:11:32;10.77;;;9.15;;
6547;SDS011;3307;52.416;16.862;2023-04-05T09:13:58;10.50;;;9.45;;
6547;SDS011;3307;52.416;16.862;2023-04-05T09:16:23;12.10;;;10.13;;
6547;SDS011;3307;52.416;16.862;2023-04-05T09:18:49;11.48;;;8.40;;
6547;SDS011;3307;52.416;16.862;2023-04-05T09:21:15;9.10;;;8.30;;
6547;SDS011;3307;52.416;16.862;2023-04-05T09:23:49;10.40;;;8.98;;
6547;SDS011;3307;52.416;16.862;2023-04-05T09:26:17;10.25;;;9.07;;
6547;SDS011;3307;52.416;16.862;2023-04-05T09:28:43;15.02;;;9.05;;
6547;SDS011;3307;52.416;16.862;2023-04-05T09:31:08;9.40;;;8.40;;
6547;SDS011;3307;52.416;16.862;2023-04-05T09:33:34;14.13;;;9.77;;
6547;SDS011;3307;52.416;16.862;2023-04-05T09:36:00;15.63;;;9.65;;
6547;SDS011;3307;52.416;16.862;2023-04-05T09:38:48;9.95;;;8.70;;
6547;SDS011;3307;52.416;16.862;2023-04-05T09:41:12;12.55;;;9.07;;
6547;SDS011;3307;52.416;16.862;2023-04-05T09:43:38;12.53;;;9.03;;
6547;SDS011;3307;52.416;16.862;2023-04-05T09:46:05;9.85;;;8.30;;
6547;SDS011;3307;52.416;16.862;2023-04-05T09:48:46;9.43;;;7.80;;
6547;SDS011;3307;52.416;16.862;2023-04-05T09:51:13;8.00;;;7.20;;
6547;SDS011;3307;52.416;16.862;2023-04-05T09:54:04;10.27;;;8.68;;
6547;SDS011;3307;52.416;16.862;2023-04-05T09:56:29;10.50;;;7.95;;
6547;SDS011;3307;52.416;16.862;2023-04-05T09:58:59;9.82;;;8.10;;
6547;SDS011;3307;52.416;16.862;2023-04-05T10:01:26;11.43;;;8.65;;
6547;SDS011;3307;52.416;16.862;2023-04-05T10:03:55;10.85;;;8.68;;
6547;SDS011;3307;52.416;16.862;2023-04-05T10:06:21;10.85;;;8.35;;
6547;SDS011;3307;52.416;16.862;2023-04-05T10:08:47;9.97;;;8.50;;
6547;SDS011;3307;52.416;16.862;2023-04-05T10:11:13;10.47;;;7.97;;
6547;SDS011;3307;52.416;16.862;2023-04-05T10:13:43;10.93;;;9.52;;
6547;SDS011;3307;52.416;16.862;2023-04-05T10:16:10;11.87;;;9.00;;
6547;SDS011;3307;52.416;16.862;2023-04-05T10:18:44;11.55;;;9.85;;
6547;SDS011;3307;52.416;16.862;2023-04-05T10:21:14;12.05;;;9.73;;
6547;SDS011;3307;52.416;16.862;2023-04-05T10:23:45;8.40;;;7.60;;
6547;SDS011;3307;52.416;16.862;2023-04-05T10:26:18;9.98;;;8.63;;
6547;SDS011;3307;52.416;16.862;2023-04-05T10:29:01;9.95;;;8.95;;
6547;SDS011;3307;52.416;16.862;2023-04-05T10:31:44;13.35;;;9.07;;
6547;SDS011;3307;52.416;16.862;2023-04-05T10:34:39;9.40;;;8.43;;
6547;SDS011;3307;52.416;16.862;2023-04-05T10:37:08;9.45;;;8.50;;
6547;SDS011;3307;52.416;16.862;2023-04-05T10:39:46;10.55;;;8.30;;
6547;SDS011;3307;52.416;16.862;2023-04-05T10:45:02;10.45;;;9.10;;
6547;SDS011;3307;52.416;16.862;2023-04-05T10:47:30;9.65;;;8.63;;
6547;SDS011;3307;52.416;16.862;2023-04-05T10:49:56;12.48;;;8.65;;
6547;SDS011;3307;52.416;16.862;2023-04-05T10:52:24;11.20;;;9.98;;
6547;SDS011;3307;52.416;16.862;2023-04-05T10:54:51;12.32;;;10.15;;
6547;SDS011;3307;52.416;16.862;2023-04-05T10:57:16;14.50;;;10.07;;
6547;SDS011;3307;52.416;16.862;2023-04-05T10:59:44;10.57;;;8.70;;
6547;SDS011;3307;52.416;16.862;2023-04-05T11:02:10;19.63;;;9.80;;
6547;SDS011;3307;52.416;16.862;2023-04-05T11:04:36;11.43;;;8.80;;
6547;SDS011;3307;52.416;16.862;2023-04-05T11:07:14;10.80;;;8.30;;
6547;SDS011;3307;52.416;16.862;2023-04-05T11:18:27;9.25;;;8.35;;
6547;SDS011;3307;52.416;16.862;2023-04-05T11:20:50;9.80;;;8.90;;
6547;SDS011;3307;52.416;16.862;2023-04-05T11:23:21;11.23;;;9.00;;
6547;SDS011;3307;52.416;16.862;2023-04-05T11:25:52;10.90;;;9.75;;
6547;SDS011;3307;52.416;16.862;2023-04-05T11:28:33;26.88;;;23.98;;
6547;SDS011;3307;52.416;16.862;2023-04-05T11:36:10;10.27;;;8.38;;
6547;SDS011;3307;52.416;16.862;2023-04-05T11:38:37;10.48;;;8.93;;
6547;SDS011;3307;52.416;16.862;2023-04-05T11:43:37;9.93;;;7.93;;
6547;SDS011;3307;52.416;16.862;2023-04-05T11:46:03;8.40;;;7.60;;
6547;SDS011;3307;52.416;16.862;2023-04-05T11:48:29;9.70;;;8.70;;
6547;SDS011;3307;52.416;16.862;2023-04-05T11:50:55;9.00;;;8.07;;
6547;SDS011;3307;52.416;16.862;2023-04-05T11:53:21;9.02;;;8.13;;
6547;SDS011;3307;52.416;16.862;2023-04-05T11:55:48;9.30;;;7.70;;
6547;SDS011;3307;52.416;16.862;2023-04-05T11:58:21;9.80;;;8.90;;
6547;SDS011;3307;52.416;16.862;2023-04-05T12:01:00;9.23;;;8.32;;
6547;SDS011;3307;52.416;16.862;2023-04-05T12:03:27;9.95;;;8.73;;
6547;SDS011;3307;52.416;16.862;2023-04-05T12:05:55;9.75;;;8.32;;
6547;SDS011;3307;52.416;16.862;2023-04-05T12:08:22;9.63;;;8.00;;
6547;SDS011;3307;52.416;16.862;2023-04-05T12:10:54;9.82;;;8.20;;
6547;SDS011;3307;52.416;16.862;2023-04-05T12:15:53;8.85;;;7.95;;
6547;SDS011;3307;52.416;16.862;2023-04-05T12:18:18;8.67;;;7.87;;
6547;SDS011;3307;52.416;16.862;2023-04-05T12:20:44;10.33;;;8.20;;
6547;SDS011;3307;52.416;16.862;2023-04-05T12:23:10;11.00;;;8.30;;
6547;SDS011;3307;52.416;16.862;2023-04-05T12:25:35;10.00;;;8.37;;
6547;SDS011;3307;52.416;16.862;2023-04-05T12:28:05;8.55;;;7.72;;
6547;SDS011;3307;52.416;16.862;2023-04-05T12:30:33;10.20;;;8.80;;
6547;SDS011;3307;52.416;16.862;2023-04-05T12:33:07;9.32;;;8.00;;
6547;SDS011;3307;52.416;16.862;2023-04-05T12:35:33;10.60;;;8.13;;
6547;SDS011;3307;52.416;16.862;2023-04-05T12:38:02;10.27;;;8.53;;
6547;SDS011;3307;52.416;16.862;2023-04-05T12:40:29;10.00;;;8.20;;
6547;SDS011;3307;52.416;16.862;2023-04-05T12:43:05;11.45;;;9.18;;
6547;SDS011;3307;52.416;16.862;2023-04-05T12:45:32;13.18;;;11.75;;
6547;SDS011;3307;52.416;16.862;2023-04-05T12:48:06;11.18;;;7.97;;
6547;SDS011;3307;52.416;16.862;2023-04-05T12:50:52;8.93;;;8.13;;
6547;SDS011;3307;52.416;16.862;2023-04-05T12:53:21;9.25;;;8.00;;
6547;SDS011;3307;52.416;16.862;2023-04-05T12:55:50;11.90;;;7.88;;
6547;SDS011;3307;52.416;16.862;2023-04-05T12:58:17;9.43;;;8.52;;
6547;SDS011;3307;52.416;16.862;2023-04-05T13:00:43;9.32;;;8.40;;
6547;SDS011;3307;52.416;16.862;2023-04-05T13:03:18;10.70;;;7.87;;
6547;SDS011;3307;52.416;16.862;2023-04-05T13:05:45;11.50;;;8.70;;
6547;SDS011;3307;52.416;16.862;2023-04-05T13:08:12;8.63;;;7.93;;
6547;SDS011;3307;52.416;16.862;2023-04-05T13:10:37;8.50;;;7.70;;
6547;SDS011;3307;52.416;16.862;2023-04-05T13:13:03;8.23;;;7.43;;
6547;SDS011;3307;52.416;16.862;2023-04-05T13:15:28;7.00;;;5.90;;
6547;SDS011;3307;52.416;16.862;2023-04-05T13:17:54;7.30;;;6.60;;
6547;SDS011;3307;52.416;16.862;2023-04-05T13:20:20;8.23;;;7.40;;
6547;SDS011;3307;52.416;16.862;2023-04-05T13:22:45;10.30;;;7.43;;
6547;SDS011;3307;52.416;16.862;2023-04-05T13:25:12;7.90;;;7.10;;
6547;SDS011;3307;52.416;16.862;2023-04-05T13:27:38;7.80;;;6.95;;
6547;SDS011;3307;52.416;16.862;2023-04-05T13:30:03;7.90;;;7.10;;
6547;SDS011;3307;52.416;16.862;2023-04-05T13:32:29;8.37;;;7.30;;
6547;SDS011;3307;52.416;16.862;2023-04-05T13:34:55;8.33;;;7.40;;
6547;SDS011;3307;52.416;16.862;2023-04-05T13:37:20;7.87;;;7.07;;
6547;SDS011;3307;52.416;16.862;2023-04-05T13:39:45;10.37;;;7.10;;
6547;SDS011;3307;52.416;16.862;2023-04-05T13:42:11;8.00;;;7.20;;
6547;SDS011;3307;52.416;16.862;2023-04-05T13:44:36;9.07;;;7.03;;
6547;SDS011;3307;52.416;16.862;2023-04-05T13:47:02;8.30;;;7.43;;
6547;SDS011;3307;52.416;16.862;2023-04-05T13:49:28;12.77;;;8.37;;
6547;SDS011;3307;52.416;16.862;2023-04-05T13:51:53;11.63;;;9.07;;
6547;SDS011;3307;52.416;16.862;2023-04-05T13:54:18;11.57;;;10.50;;
6547;SDS011;3307;52.416;16.862;2023-04-05T13:56:44;12.63;;;10.15;;
6547;SDS011;3307;52.416;16.862;2023-04-05T13:59:10;7.10;;;6.50;;
6547;SDS011;3307;52.416;16.862;2023-04-05T14:01:40;6.80;;;6.20;;
6547;SDS011;3307;52.416;16.862;2023-04-05T14:04:06;6.80;;;6.00;;
6547;SDS011;3307;52.416;16.862;2023-04-05T14:06:32;6.33;;;5.80;;
6547;SDS011;3307;52.416;16.862;2023-04-05T14:08:57;8.33;;;6.27;;
6547;SDS011;3307;52.416;16.862;2023-04-05T14:11:22;9.10;;;6.70;;
6547;SDS011;3307;52.416;16.862;2023-04-05T14:13:51;18.10;;;7.53;;
6547;SDS011;3307;52.416;16.862;2023-04-05T14:16:16;9.63;;;6.73;;
6547;SDS011;3307;52.416;16.862;2023-04-05T14:18:42;7.47;;;6.70;;
6547;SDS011;3307;52.416;16.862;2023-04-05T14:21:07;6.80;;;6.20;;
6547;SDS011;3307;52.416;16.862;2023-04-05T14:23:33;7.57;;;6.63;;
6547;SDS011;3307;52.416;16.862;2023-04-05T14:25:58;6.30;;;5.70;;
6547;SDS011;3307;52.416;16.862;2023-04-05T14:28:24;7.60;;;6.30;;
6547;SDS011;3307;52.416;16.862;2023-04-05T14:30:49;6.03;;;5.53;;
6547;SDS011;3307;52.416;16.862;2023-04-05T14:33:15;8.70;;;6.13;;
6547;SDS011;3307;52.416;16.862;2023-04-05T14:35:43;6.90;;;6.20;;
6547;SDS011;3307;52.416;16.862;2023-04-05T14:38:10;6.73;;;5.70;;
6547;SDS011;3307;52.416;16.862;2023-04-05T14:40:35;6.67;;;5.97;;
6547;SDS011;3307;52.416;16.862;2023-04-05T14:43:01;7.07;;;5.77;;
6547;SDS011;3307;52.416;16.862;2023-04-05T14:45:27;8.30;;;5.50;;
6547;SDS011;3307;52.416;16.862;2023-04-05T14:47:53;6.20;;;5.60;;
6547;SDS011;3307;52.416;16.862;2023-04-05T14:50:19;9.60;;;6.47;;
6547;SDS011;3307;52.416;16.862;2023-04-05T14:52:44;5.70;;;5.20;;
6547;SDS011;3307;52.416;16.862;2023-04-05T14:55:10;10.10;;;5.43;;
6547;SDS011;3307;52.416;16.862;2023-04-05T14:57:40;7.03;;;6.07;;
6547;SDS011;3307;52.416;16.862;2023-04-05T15:00:07;6.88;;;6.18;;
6547;SDS011;3307;52.416;16.862;2023-04-05T15:02:34;7.40;;;6.28;;
6547;SDS011;3307;52.416;16.862;2023-04-05T15:05:03;6.28;;;5.68;;
6547;SDS011;3307;52.416;16.862;2023-04-05T15:07:29;6.93;;;6.00;;
6547;SDS011;3307;52.416;16.862;2023-04-05T15:09:54;5.50;;;5.00;;
6547;SDS011;3307;52.416;16.862;2023-04-05T15:12:20;8.60;;;6.87;;
6547;SDS011;3307;52.416;16.862;2023-04-05T15:14:46;7.10;;;6.50;;
6547;SDS011;3307;52.416;16.862;2023-04-05T15:17:14;6.57;;;5.90;;
6547;SDS011;3307;52.416;16.862;2023-04-05T15:19:40;6.03;;;5.50;;
6547;SDS011;3307;52.416;16.862;2023-04-05T15:22:05;5.10;;;4.70;;
6547;SDS011;3307;52.416;16.862;2023-04-05T15:24:31;6.67;;;6.07;;